createdAt,value
2019-04-19T00:02:15.053Z,101480.63
2019-04-19T00:07:24.136Z,101487.10
2019-04-19T00:12:39.947Z,101489.02
2019-04-19T00:17:35.473Z,101491.49
2019-04-19T00:23:04.286Z,101492.61
2019-04-19T00:27:59.915Z,101489.97
2019-04-19T00:33:25.080Z,101489.22
2019-04-19T00:38:36.898Z,101487.13
2019-04-19T00:43:58.924Z,101487.73
2019-04-19T00:49:02.826Z,101489.37
2019-04-19T00:54:11.890Z,101484.83
2019-04-19T00:59:10.175Z,101490.20
2019-04-19T01:04:18.810Z,101492.39
2019-04-19T01:09:34.483Z,101501.77
2019-04-19T01:14:36.382Z,101498.88
2019-04-19T01:19:32.635Z,101499.95
2019-04-19T01:24:42.878Z,101501.59
2019-04-19T01:29:48.704Z,101503.23
2019-04-19T01:34:57.921Z,101497.92
2019-04-19T01:40:14.915Z,101496.58
2019-04-19T01:45:41.819Z,101503.30
2019-04-19T01:51:03.327Z,101500.37
2019-04-19T01:56:02.833Z,101500.69
2019-04-19T02:01:12.417Z,101500.42
2019-04-19T02:06:16.279Z,101500.45
2019-04-19T02:11:51.366Z,101505.52
2019-04-19T02:16:55.923Z,101502.36
2019-04-19T02:22:02.072Z,101509.83
2019-04-19T02:27:09.128Z,101509.56
2019-04-19T02:32:41.063Z,101510.12
2019-04-19T02:37:49.309Z,101514.41
2019-04-19T02:42:51.376Z,101520.55
2019-04-19T02:47:57.826Z,101514.17
2019-04-19T02:53:14.478Z,101515.25
2019-04-19T03:08:10.421Z,101524.34
2019-04-19T03:13:35.377Z,101527.28
2019-04-19T03:18:52.164Z,101529.41
2019-04-19T03:23:44.995Z,101525.41
2019-04-19T03:28:46.423Z,101535.55
2019-04-19T03:34:16.264Z,101537.42
2019-04-19T03:39:17.901Z,101544.09
2019-04-19T03:44:29.240Z,101544.91
2019-04-19T03:49:37.200Z,101539.29
2019-04-19T03:54:39.167Z,101544.09
2019-04-19T03:59:33.411Z,101548.34
2019-04-19T04:04:38.851Z,101556.89
2019-04-19T04:09:57.845Z,101556.33
2019-04-19T04:15:37.013Z,101560.59
2019-04-19T04:20:28.569Z,101567.77
2019-04-19T04:25:44.128Z,101565.12
2019-04-19T04:30:57.566Z,101574.18
2019-04-19T04:36:15.645Z,101574.97
2019-04-19T04:41:05.648Z,101577.34
2019-04-19T04:46:48.562Z,101580.81
2019-04-19T04:51:52.641Z,101588.00
2019-04-19T04:56:59.194Z,101591.22
2019-04-19T05:02:04.558Z,101588.25
2019-04-19T05:07:25.691Z,101598.89
2019-04-19T05:12:43.526Z,101605.84
2019-04-19T05:22:43.047Z,101612.52
2019-04-19T05:27:55.301Z,101624.50
2019-04-19T05:32:54.924Z,101628.23
2019-04-19T05:38:08.465Z,101633.62
2019-04-19T05:43:44.847Z,101638.20
2019-04-19T05:48:24.659Z,101643.81
2019-04-19T05:53:27.809Z,101646.50
2019-04-19T05:58:39.657Z,101650.52
2019-04-19T06:03:48.497Z,101652.44
2019-04-19T06:08:40.478Z,101663.15
2019-04-19T06:13:57.129Z,101659.95
2019-04-19T06:19:16.639Z,101661.84
2019-04-19T06:24:30.142Z,101661.31
2019-04-19T06:29:41.223Z,101671.50
2019-04-19T06:34:39.951Z,101670.19
2019-04-19T06:39:28.765Z,101669.95
2019-04-19T06:44:56.096Z,101669.42
2019-04-19T06:49:41.775Z,101669.97
2019-04-19T06:54:48.130Z,101667.02
2019-04-19T07:00:07.575Z,101667.80
2019-04-19T07:05:15.231Z,101670.47
2019-04-19T07:10:39.708Z,101676.31
2019-04-19T07:15:44.199Z,101677.11
2019-04-19T07:20:33.692Z,101675.47
2019-04-19T07:25:54.472Z,101680.20
2019-04-19T07:30:37.415Z,101685.98
2019-04-19T07:36:00.624Z,101686.12
2019-04-19T07:41:29.307Z,101691.95
2019-04-19T07:46:38.393Z,101693.47
2019-04-19T07:51:34.172Z,101696.84
2019-04-19T07:56:48.465Z,101706.05
2019-04-19T08:12:19.001Z,101711.37
2019-04-19T08:27:26.876Z,101715.56
2019-04-19T08:32:27.847Z,101719.17
2019-04-19T08:37:37.818Z,101717.97
2019-04-19T08:42:54.123Z,101717.83
2019-04-19T08:48:11.898Z,101712.22
2019-04-19T08:53:26.784Z,101709.75
2019-04-19T08:58:39.851Z,101720.27
2019-04-19T09:03:49.285Z,101720.76
2019-04-19T09:08:46.242Z,101716.11
2019-04-19T09:14:02.302Z,101717.70
2019-04-19T09:19:12.361Z,101715.56
2019-04-19T09:24:01.912Z,101711.16
2019-04-19T09:29:29.321Z,101716.74
2019-04-19T09:34:13.255Z,101704.11
2019-04-19T09:39:44.590Z,101702.72
2019-04-19T09:44:46.095Z,101697.09
2019-04-19T09:50:01.468Z,101699.77
2019-04-19T09:55:15.362Z,101695.67
2019-04-19T10:00:08.850Z,101695.59
2019-04-19T10:05:09.690Z,101693.08
2019-04-19T10:10:16.183Z,101689.70
2019-04-19T10:15:40.540Z,101695.88
2019-04-19T10:21:09.984Z,101691.55
2019-04-19T10:26:24.333Z,101686.94
2019-04-19T10:31:39.744Z,101692.53
2019-04-19T10:36:47.700Z,101684.08
2019-04-19T10:41:52.273Z,101683.30
2019-04-19T10:46:58.763Z,101688.16
2019-04-19T10:52:10.452Z,101687.55
2019-04-19T10:57:21.272Z,101673.36
2019-04-19T11:02:36.691Z,101673.70
2019-04-19T11:07:43.647Z,101669.92
2019-04-19T11:13:08.804Z,101684.37
2019-04-19T11:18:14.355Z,101670.78
2019-04-19T11:23:21.793Z,101674.70
2019-04-19T11:28:27.185Z,101674.70
2019-04-19T11:33:34.931Z,101666.28
2019-04-19T11:38:41.206Z,101666.66
2019-04-19T11:43:47.655Z,101655.48
2019-04-19T11:48:52.892Z,101669.33
2019-04-19T11:53:59.226Z,101653.89
2019-04-19T11:59:08.888Z,101666.73
2019-04-19T12:04:14.399Z,101656.17
2019-04-19T12:09:22.682Z,101656.02
2019-04-19T12:14:29.554Z,101652.64
2019-04-19T12:19:45.297Z,101658.53
2019-04-19T12:24:42.835Z,101641.80
2019-04-19T12:29:51.389Z,101651.53
2019-04-19T12:34:55.418Z,101648.11
2019-04-19T12:40:01.072Z,101638.06
2019-04-19T12:45:10.181Z,101636.42
2019-04-19T12:50:17.952Z,101628.53
2019-04-19T12:55:24.107Z,101626.09
2019-04-19T13:00:56.304Z,101612.27
2019-04-19T13:06:01.789Z,101622.52
2019-04-19T13:11:07.658Z,101615.36
2019-04-19T13:16:12.902Z,101603.97
2019-04-19T13:21:19.867Z,101596.30
2019-04-19T13:26:25.324Z,101588.03
2019-04-19T13:31:31.113Z,101582.41
2019-04-19T13:36:51.339Z,101580.97
2019-04-19T13:42:05.193Z,101575.09
2019-04-19T13:47:10.992Z,101575.79
2019-04-19T13:52:16.653Z,101562.94
2019-04-19T13:57:23.724Z,101564.42
2019-04-19T14:02:29.427Z,101558.59
2019-04-19T14:07:34.896Z,101564.20
2019-04-19T14:12:40.997Z,101557.27
2019-04-19T14:17:46.010Z,101556.13
2019-04-19T14:22:51.872Z,101559.28
2019-04-19T14:27:57.610Z,101551.11
2019-04-19T14:33:04.172Z,101538.09
2019-04-19T14:38:11.804Z,101546.20
2019-04-19T14:43:20.532Z,101539.34
2019-04-19T14:48:36.888Z,101534.02
2019-04-19T14:53:42.826Z,101531.92
2019-04-19T14:58:48.377Z,101521.03
2019-04-19T15:03:57.043Z,101521.27
2019-04-19T15:09:05.834Z,101524.90
2019-04-19T15:14:14.522Z,101523.57
2019-04-19T15:19:23.106Z,101509.19
2019-04-19T15:24:28.622Z,101506.93
2019-04-19T15:29:34.695Z,101497.67
2019-04-19T15:34:40.773Z,101487.80
2019-04-19T15:39:47.936Z,101487.33
2019-04-19T15:44:55.254Z,101488.80
2019-04-19T15:50:02.298Z,101486.84
2019-04-19T15:55:14.203Z,101476.20
2019-04-19T16:00:27.908Z,101488.36
2019-04-19T16:05:44.442Z,101478.63
2019-04-19T16:11:08.886Z,101484.03
2019-04-19T16:16:16.454Z,101486.98
2019-04-19T16:21:31.246Z,101474.33
2019-04-19T16:26:31.015Z,101467.08
2019-04-19T16:31:38.218Z,101465.20
2019-04-19T16:36:45.442Z,101468.12
2019-04-19T16:41:51.110Z,101467.70
2019-04-19T16:46:59.304Z,101458.15
2019-04-19T16:52:04.918Z,101457.91
2019-04-19T16:57:20.759Z,101457.00
2019-04-19T17:02:20.248Z,101460.97
2019-04-19T17:07:26.824Z,101462.42
2019-04-19T17:12:32.764Z,101459.55
2019-04-19T17:17:46.813Z,101463.72
2019-04-19T17:22:58.691Z,101458.26
2019-04-19T17:28:05.123Z,101458.93
2019-04-19T17:33:10.492Z,101462.62
2019-04-19T17:38:26.918Z,101462.81
2019-04-19T17:43:23.607Z,101468.64
2019-04-19T17:48:30.439Z,101472.75
2019-04-19T17:53:42.322Z,101465.39
2019-04-19T17:58:42.614Z,101472.99
2019-04-19T18:03:58.814Z,101473.09
2019-04-19T18:09:12.801Z,101481.25
2019-04-19T18:14:14.227Z,101483.55
2019-04-19T18:19:26.347Z,101489.97
2019-04-19T18:24:29.727Z,101490.23
2019-04-19T18:29:37.983Z,101499.89
2019-04-19T18:34:45.710Z,101497.77
2019-04-19T18:39:54.369Z,101505.45
2019-04-19T18:45:02.675Z,101514.69
2019-04-19T18:50:08.625Z,101513.73
2019-04-19T18:55:20.814Z,101510.17
2019-04-19T19:00:22.216Z,101515.33
2019-04-19T19:05:28.082Z,101514.62
2019-04-19T19:10:43.630Z,101519.59
2019-04-19T19:15:48.182Z,101520.16
2019-04-19T19:20:55.810Z,101527.38
2019-04-19T19:26:10.601Z,101526.64
2019-04-19T19:31:04.938Z,101518.51
2019-04-19T19:36:12.463Z,101524.98
2019-04-19T19:41:29.875Z,101513.12
2019-04-19T19:46:51.257Z,101516.42
2019-04-19T19:51:47.752Z,101518.02
2019-04-19T19:57:08.293Z,101517.87
2019-04-19T20:02:05.936Z,101516.53
2019-04-19T20:07:06.129Z,101518.20
2019-04-19T20:12:32.974Z,101508.72
2019-04-19T20:17:38.768Z,101516.39
2019-04-19T20:22:45.279Z,101514.19
2019-04-19T20:27:51.730Z,101521.92
2019-04-19T20:32:59.133Z,101526.17
2019-04-19T20:38:07.286Z,101523.73
2019-04-19T20:43:25.380Z,101524.05
2019-04-19T20:48:20.674Z,101530.74
2019-04-19T20:53:38.710Z,101521.69
2019-04-19T20:58:43.530Z,101527.30
2019-04-19T21:04:03.035Z,101539.94
2019-04-19T21:09:01.623Z,101541.52
2019-04-19T21:14:09.278Z,101544.71
2019-04-19T21:19:14.419Z,101550.02
2019-04-19T21:24:20.461Z,101549.22
2019-04-19T21:29:30.192Z,101545.40
2019-04-19T21:34:36.494Z,101554.48
2019-04-19T21:39:44.887Z,101548.73
2019-04-19T21:44:51.641Z,101559.66
2019-04-19T21:49:57.070Z,101553.42
2019-04-19T21:55:12.493Z,101562.44
2019-04-19T22:00:21.153Z,101558.30
2019-04-19T22:05:30.611Z,101560.14
2019-04-19T22:10:39.941Z,101558.59
2019-04-19T22:15:44.200Z,101558.54
2019-04-19T22:20:54.114Z,101562.77
2019-04-19T22:26:09.629Z,101563.47
2019-04-19T22:31:12.517Z,101564.70
2019-04-19T22:36:19.548Z,101568.98
2019-04-19T22:41:26.837Z,101566.95
2019-04-19T22:46:39.121Z,101568.83
2019-04-19T22:51:40.599Z,101568.19
2019-04-19T22:56:58.588Z,101561.72
2019-04-19T23:02:10.311Z,101568.65
2019-04-19T23:07:16.755Z,101572.51
2019-04-19T23:12:22.703Z,101573.34
2019-04-19T23:17:34.884Z,101571.25
2019-04-19T23:22:40.665Z,101569.30
2019-04-19T23:27:49.015Z,101564.08
2019-04-19T23:32:50.335Z,101567.05
2019-04-19T23:37:55.601Z,101564.78
2019-04-19T23:43:33.599Z,101558.21
2019-04-19T23:48:33.630Z,101560.95
2019-04-19T23:53:42.820Z,101553.89
2019-04-19T23:58:46.587Z,101555.53
